Latest Weather Observations for Sydney Airport

IDN60801

Issued at 11:42 am EST Sunday 22 September 2019 (issued every 10 minutes, with the page automatically refreshed every 10 minutes)

About weather observations | Map of weather stations | Latest weather observations for NSW | Other Formats
Station Details ID: 066037 Name: SYDNEY AIRPORT AMO Lat: -33.95 Lon: 151.17 Height: 6.0 m
Data from the previous 72 hours. | See also: Recent months at Sydney Airport
Date/Time
EST
Temp
°C
App
Temp
°C
Dew
Point
°C
Rel
Hum
%
Delta-T
°C
Wind Press
QNH
hPa
Press
MSL
hPa
Rain since
9am
mm
Dir  Spd
km/h
Gust
km/h
Spd
kts
Gust
kts
22/11:30am 20.3 17.8 11.0 55 5.1 ESE 15 19 8 10 1021.3 1021.3 0.0
22/11:00am 19.7 17.5 10.7 56 4.9 SSE 13 17 7 9 1021.5 1021.5 0.0
22/10:30am 20.8 19.3 12.0 57 4.9 SE 11 13 6 7 1021.4 1021.4 0.0
22/10:00am 19.4 17.1 11.7 61 4.2 SSW 15 32 8 17 1021.3 1021.3 0.0
22/09:30am 19.1 16.8 11.9 63 4.0 SSW 15 19 8 10 1021.6 1021.6 0.0
22/09:00am 18.2 15.2 12.4 69 3.2 SSW 20 28 11 15 1021.4 1021.4 0.0
22/08:30am 18.2 15.5 13.5 74 2.7 SW 20 26 11 14 1021.1 1021.1 0.0
22/08:00am 17.9 14.8 13.4 75 2.5 SW 22 32 12 17 1020.7 1020.7 0.0
22/07:30am 18.7 19.0 14.4 76 2.5 WSW 6 11 3 6 1020.3 1020.3 0.0
22/07:00am 17.9 18.1 15.7 87 1.3 SW 9 13 5 7 1019.8 1019.8 0.0
22/06:30am 17.8 16.6 14.1 79 2.1 WSW 13 24 7 13 1019.2 1019.2 0.0
22/06:00am 18.9 18.8 15.0 78 2.3 N 9 11 5 6 1018.8 1018.8 0.0
22/05:30am 18.9 18.0 14.8 77 2.4 N 13 15 7 8 1018.5 1018.5 0.0
22/05:00am 19.4 19.1 14.4 73 2.9 NNW 9 13 5 7 1018.0 1018.0 0.0
22/04:30am 19.2 19.1 14.9 76 2.5 N 9 11 5 6 1017.2 1017.2 0.0
22/04:00am 19.2 18.5 14.2 73 2.9 N 11 13 6 7 1016.9 1016.9 0.0
22/03:30am 19.5 17.6 14.1 71 3.1 N 17 17 9 9 1016.9 1016.9 0.0
22/03:00am 19.4 19.0 15.1 76 2.5 N 11 13 6 7 1016.5 1016.5 0.0
22/02:30am 19.8 20.1 16.1 79 2.2 N 9 13 5 7 1017.0 1017.0 0.0
22/02:00am 18.2 20.4 16.5 90 1.0 CALM 0 0 0 0 1017.3 1017.3 0.0
22/01:30am 18.3 18.7 16.3 88 1.2 SW 9 13 5 7 1017.7 1017.7 0.0
22/01:00am 18.9 19.1 16.7 87 1.3 NE 11 11 6 6 1017.5 1017.5 0.0
22/12:30am 19.7 20.1 16.3 81 2.0 NE 9 11 5 6 1017.5 1017.5 0.0
22/12:00am 20.1 21.0 16.5 80 2.2 N 7 9 4 5 1017.8 1017.8 0.0
 
Date/Time
EST
Temp
°C
App
Temp
°C
Dew
Point
°C
Rel
Hum
%
Delta-T
°C
Wind Press
QNH
hPa
Press
MSL
hPa
Rain since
9am
mm
Dir  Spd
km/h
Gust
km/h
Spd
kts
Gust
kts
21/11:30pm 20.0 19.8 16.6 81 2.1 NNE 13 15 7 8 1017.5 1017.5 0.0
21/11:00pm 20.1 20.2 16.5 80 2.2 N 11 15 6 8 1017.5 1017.5 0.0
21/10:30pm 19.8 19.5 16.4 81 2.0 NE 13 15 7 8 1017.4 1017.4 0.0
21/10:00pm 20.1 18.8 16.9 82 1.9 NE 19 20 10 11 1017.5 1017.5 0.0
21/09:30pm 20.3 20.8 16.5 79 2.3 NNE 9 13 5 7 1017.9 1017.9 0.0
21/09:00pm 20.5 19.2 16.7 79 2.3 NNE 19 24 10 13 1018.2 1018.2 0.0
21/08:30pm 20.6 19.0 16.6 78 2.4 NE 20 26 11 14 1018.1 1018.1 0.0
21/08:00pm 20.5 17.3 16.3 77 2.5 NE 28 33 15 18 1018.0 1018.0 0.0
21/07:30pm 21.5 20.7 16.0 71 3.3 E 15 17 8 9 1018.4 1018.4 0.0
21/07:00pm 22.3 21.5 16.1 68 3.7 N 15 32 8 17 1018.8 1018.8 0.0
21/06:30pm 21.0 16.9 16.4 75 2.8 NNE 33 41 18 22 1017.6 1017.6 0.0
21/06:00pm 21.0 15.4 16.4 75 2.8 NE 41 50 22 27 1017.3 1017.3 0.0
21/05:30pm 21.3 16.8 16.5 74 2.9 NNE 35 44 19 24 1017.3 1017.3 0.0
21/05:00pm 21.4 16.7 15.9 71 3.3 NE 35 44 19 24 1017.1 1017.1 0.0
21/04:30pm 22.0 17.1 16.3 70 3.4 NE 37 46 20 25 1017.1 1017.1 0.0
21/04:14pm 21.8 16.4 16.1 70 3.4 NNE 39 57 21 31 1017.0 1017.0 0.0
21/04:00pm 22.5 16.7 16.1 67 3.9 NNE 41 52 22 28 1016.9 1016.9 0.0
21/03:30pm 21.8 16.9 16.3 71 3.3 NE 37 48 20 26 1017.0 1017.0 0.0
21/03:00pm 21.8 16.4 16.1 70 3.4 NNE 39 52 21 28 1017.2 1017.2 0.0
21/02:30pm 22.7 17.2 15.8 65 4.2 NE 39 48 21 26 1017.2 1017.2 0.0
21/02:00pm 23.2 17.6 15.5 62 4.6 NNE 39 48 21 26 1017.5 1017.5 0.0
21/01:30pm 23.2 17.8 15.0 60 4.9 NNE 37 46 20 25 1017.5 1017.5 0.0
21/01:00pm 23.3 18.1 14.6 58 5.1 NE 35 43 19 23 1017.8 1017.8 0.0
21/12:30pm 22.9 18.4 15.0 61 4.7 NNE 32 37 17 20 1018.4 1018.4 0.0
21/12:00pm 22.3 18.3 15.2 64 4.2 NNE 30 37 16 20 1019.1 1019.1 0.0
21/11:30am 21.9 18.3 15.3 66 3.9 NE 28 33 15 18 1019.8 1019.8 0.0
21/11:00am 21.6 18.7 15.2 67 3.8 NNE 24 30 13 16 1020.3 1020.3 0.0
21/10:30am 20.6 18.2 14.5 68 3.6 NNE 20 26 11 14 1021.0 1021.0 0.0
21/10:00am 20.9 18.5 14.5 67 3.7 NNE 20 24 11 13 1021.4 1021.4 0.0
21/09:30am 20.2 17.1 14.6 70 3.3 N 24 30 13 16 1021.7 1021.7 0.0
21/09:00am 19.9 16.9 14.9 73 2.9 NNE 24 30 13 16 1022.1 1022.1 0.0
21/08:30am 19.7 17.1 14.9 74 2.8 NNE 22 32 12 17 1022.3 1022.3 0.0
21/08:00am 19.2 16.2 14.9 76 2.5 N 24 30 13 16 1022.3 1022.3 0.0
21/07:30am 19.0 14.5 14.9 77 2.4 NNE 32 39 17 21 1022.0 1022.0 0.0
21/07:00am 18.8 15.9 15.1 79 2.2 NNE 24 35 13 19 1021.9 1021.9 0.0
21/06:30am 18.4 15.7 14.7 79 2.1 NNE 22 32 12 17 1021.7 1021.7 0.0
21/06:00am 18.4 15.1 15.1 81 1.9 NNE 26 41 14 22 1021.6 1021.6 0.0
21/05:30am 18.3 14.2 15.0 81 1.9 NNE 30 37 16 20 1021.4 1021.4 0.0
21/05:00am 18.2 14.2 15.1 82 1.8 NNE 30 41 16 22 1021.2 1021.2 0.0
21/04:30am 18.3 14.6 15.0 81 1.9 NNE 28 33 15 18 1021.2 1021.2 0.0
21/04:00am 18.5 15.5 14.8 79 2.1 NNE 24 32 13 17 1021.3 1021.3 0.0
21/03:30am 18.6 16.5 14.7 78 2.3 NNE 19 26 10 14 1021.5 1021.5 0.0
21/03:00am 18.7 14.6 15.0 79 2.2 NNE 30 37 16 20 1021.6 1021.6 0.0
21/02:30am 18.7 15.2 15.4 81 1.9 NNE 28 39 15 21 1021.8 1021.8 0.0
21/02:00am 18.8 15.7 15.7 82 1.8 NNE 26 33 14 18 1021.9 1021.9 0.0
21/01:30am 18.7 14.8 15.6 82 1.8 NNE 30 43 16 23 1022.0 1022.0 0.0
21/01:00am 18.8 16.2 15.9 83 1.7 NNE 24 33 13 18 1022.5 1022.5 0.0
21/12:30am 18.7 16.1 15.8 83 1.7 NNE 24 37 13 20 1022.8 1022.8 0.0
21/12:00am 18.7 15.2 15.6 82 1.8 NNE 28 37 15 20 1022.9 1022.9 0.0
 
Date/Time
EST
Temp
°C
App
Temp
°C
Dew
Point
°C
Rel
Hum
%
Delta-T
°C
Wind Press
QNH
hPa
Press
MSL
hPa
Rain since
9am
mm
Dir  Spd
km/h
Gust
km/h
Spd
kts
Gust
kts
20/11:30pm 19.1 16.1 15.8 81 2.0 NNE 26 43 14 23 1023.3 1023.3 0.0
20/11:00pm 19.1 15.2 15.4 79 2.2 NNE 30 46 16 25 1023.3 1023.3 0.0
20/10:30pm 19.1 14.9 15.6 80 2.1 NNE 32 46 17 25 1023.6 1023.6 0.0
20/10:00pm 19.1 14.9 15.8 81 1.9 NNE 32 44 17 24 1023.5 1023.5 0.0
20/09:30pm 19.4 15.2 16.1 81 2.0 NE 33 46 18 25 1023.8 1023.8 0.0
20/09:00pm 19.2 15.1 15.9 81 2.0 NNE 32 39 17 21 1024.1 1024.1 0.0
20/08:30pm 19.3 15.0 15.8 80 2.1 NNE 33 50 18 27 1024.0 1024.0 0.0
20/08:17pm 19.4 15.1 15.9 80 2.1 NNE 33 57 18 31 1024.0 1024.0 0.0
20/08:00pm 19.1 15.6 15.4 79 2.2 NNE 28 39 15 21 1023.9 1023.9 0.0
20/07:30pm 19.1 14.2 15.4 79 2.2 NE 35 44 19 24 1023.7 1023.7 0.0
20/07:00pm 18.9 14.3 15.2 79 2.2 NE 33 48 18 26 1023.4 1023.4 0.0
20/06:30pm 19.3 15.5 15.8 80 2.1 NE 30 37 16 20 1023.3 1023.3 0.0
20/06:00pm 19.3 15.8 15.6 79 2.2 NE 28 37 15 20 1023.2 1023.2 0.0
20/05:30pm 19.7 15.8 15.6 77 2.4 NE 30 41 16 22 1023.1 1023.1 0.0
20/05:00pm 19.8 15.2 15.2 75 2.7 NE 33 50 18 27 1022.9 1022.9 0.0
20/04:59pm 19.9 15.6 15.3 75 2.7 NE 32 50 17 27 1022.9 1022.9 0.0
20/04:30pm 20.0 14.9 14.8 72 3.0 NE 35 48 19 26 1022.9 1022.9 0.0
20/04:00pm 21.2 15.9 15.3 69 3.5 NE 37 50 20 27 1022.8 1022.8 0.0
20/03:30pm 21.2 15.8 15.1 68 3.6 NE 37 48 20 26 1022.6 1022.6 0.0
20/03:00pm 21.3 15.5 14.9 67 3.8 NE 39 54 21 29 1022.7 1022.7 0.0
20/02:30pm 21.6 16.0 14.5 64 4.2 NE 37 48 20 26 1023.1 1023.1 0.0
20/02:00pm 21.7 17.3 15.1 66 3.9 NE 32 41 17 22 1023.6 1023.6 0.0
20/01:45pm 21.7 17.2 15.3 67 3.8 NE 33 41 18 22 1023.8 1023.8 0.0
20/01:30pm 21.5 16.0 14.6 65 4.0 NNE 37 43 20 23 1023.9 1023.9 0.0
20/01:00pm 22.2 17.5 14.8 63 4.4 NE 33 43 18 23 1024.5 1024.5 0.0
20/12:30pm 21.8 17.2 15.2 66 3.9 NNE 33 43 18 23 1024.8 1024.8 0.0
20/12:00pm 21.0 16.5 14.9 68 3.6 NE 32 41 17 22 1025.0 1025.0 0.0
20/11:30am 21.4 15.2 14.8 66 3.9 NE 41 54 22 29 1025.4 1025.4 0.0
20/11:00am 21.2 16.2 15.1 68 3.6 NE 35 48 19 26 1025.9 1025.9 0.0
20/10:30am 20.5 15.4 14.8 70 3.3 NNE 35 46 19 25 1026.5 1026.5 0.0
20/10:00am 20.9 17.6 15.0 69 3.5 NNE 26 39 14 21 1026.8 1026.8 0.0
20/09:30am 20.4 16.4 15.2 72 3.1 NE 30 48 16 26 1027.0 1027.0 0.0
20/09:28am 20.2 16.1 15.0 72 3.1 NNE 30 48 16 26 1027.0 1027.0 0.0
20/09:00am 20.4 16.8 15.2 72 3.1 NNE 28 37 15 20 1027.1 1027.1 0.6
20/08:30am 19.9 16.7 15.3 75 2.7 NNE 26 35 14 19 1027.1 1027.1 0.6
20/08:00am 19.7 18.0 15.8 78 2.3 NNE 19 26 10 14 1027.2 1027.2 0.6
20/07:30am 19.1 16.8 15.6 80 2.1 NNE 22 32 12 17 1027.1 1027.1 0.6
20/07:00am 18.4 17.6 16.0 86 1.4 NE 15 19 8 10 1026.9 1026.9 0.6
20/06:30am 17.1 17.9 16.3 95 0.5 NE 7 11 4 6 1026.9 1026.9 0.6
20/06:00am 14.8 16.0 13.8 94 0.6 CALM 0 0 0 0 1026.6 1026.6 0.6
20/05:30am 15.0 16.2 13.9 93 0.6 CALM 0 0 0 0 1026.5 1026.5 0.6
20/05:00am 15.5 16.8 14.0 91 0.8 CALM 0 0 0 0 1026.3 1026.3 0.6
20/04:30am 16.7 17.6 15.1 90 0.9 NE 4 7 2 4 1026.1 1026.1 0.6
20/04:00am 16.7 17.1 14.7 88 1.1 NE 6 9 3 5 1026.0 1026.0 0.6
20/03:30am 17.2 17.1 15.0 87 1.3 N 9 9 5 5 1026.0 1026.0 0.6
20/03:00am 17.6 17.4 15.6 88 1.2 NE 11 13 6 7 1026.0 1026.0 0.6
20/02:30am 17.5 17.1 15.1 86 1.4 NE 11 13 6 7 1026.1 1026.1 0.6
20/02:00am 17.6 17.1 15.0 85 1.5 NNE 11 15 6 8 1026.2 1026.2 0.6
20/01:30am 18.1 18.2 15.4 84 1.6 NNE 9 11 5 6 1026.5 1026.5 0.6
20/01:00am 17.8 17.9 15.4 86 1.4 NNE 9 15 5 8 1026.7 1026.7 0.6
20/12:30am 17.9 16.9 15.5 86 1.4 NNE 15 19 8 10 1026.7 1026.7 0.6
20/12:00am 18.1 16.7 15.5 85 1.5 NE 17 20 9 11 1026.8 1026.8 0.6
 
Date/Time
EST
Temp
°C
App
Temp
°C
Dew
Point
°C
Rel
Hum
%
Delta-T
°C
Wind Press
QNH
hPa
Press
MSL
hPa
Rain since
9am
mm
Dir  Spd
km/h
Gust
km/h
Spd
kts
Gust
kts
19/11:30pm 18.1 16.7 15.5 85 1.5 NE 17 20 9 11 1026.7 1026.7 0.6
19/11:00pm 18.3 17.0 15.7 85 1.5 NE 17 22 9 12 1026.6 1026.6 0.6
19/10:30pm 18.5 17.5 15.7 84 1.7 NE 15 19 8 10 1026.6 1026.6 0.6
19/10:00pm 18.3 17.3 15.6 84 1.6 NE 15 17 8 9 1026.7 1026.7 0.6
19/09:30pm 18.1 18.1 15.2 83 1.7 NE 9 11 5 6 1026.9 1026.9 0.6
19/09:00pm 18.2 17.9 15.5 84 1.6 NE 11 15 6 8 1026.8 1026.8 0.6
19/08:30pm 18.3 17.5 15.2 82 1.8 NE 13 17 7 9 1026.7 1026.7 0.6
19/08:00pm 18.5 17.4 15.4 82 1.8 NE 15 19 8 10 1026.6 1026.6 0.6
19/07:30pm 18.7 15.8 15.2 80 2.0 NE 24 32 13 17 1026.3 1026.3 0.6
19/07:00pm 18.9 17.4 15.2 79 2.2 NE 17 26 9 14 1026.1 1026.1 0.6
19/06:30pm 18.7 16.5 14.8 78 2.3 NE 20 28 11 15 1025.7 1025.7 0.6
19/06:00pm 18.8 16.5 14.7 77 2.4 NE 20 26 11 14 1025.6 1025.6 0.6
19/05:30pm 19.1 16.0 14.6 75 2.6 NE 24 30 13 16 1025.5 1025.5 0.6
19/05:00pm 19.4 16.4 14.9 75 2.6 ENE 24 33 13 18 1025.5 1025.5 0.6
19/04:30pm 20.0 16.8 15.4 75 2.7 ENE 26 35 14 19 1025.3 1025.3 0.6
19/04:00pm 19.6 16.2 14.8 74 2.8 NE 26 33 14 18 1025.1 1025.1 0.6
19/03:30pm 20.9 17.2 15.0 69 3.5 NE 28 37 15 20 1024.9 1024.9 0.6
19/03:00pm 21.1 17.0 15.0 68 3.6 ENE 30 39 16 21 1024.9 1024.9 0.6
19/02:30pm 20.7 17.2 14.6 68 3.6 NE 26 33 14 18 1025.0 1025.0 0.6
19/02:00pm 20.0 17.8 14.8 72 3.0 ENE 20 30 11 16 1025.2 1025.2 0.6
19/01:30pm 20.2 16.7 14.6 70 3.3 NE 26 39 14 21 1025.3 1025.3 0.6
19/01:00pm 20.7 18.1 15.0 70 3.3 ENE 22 30 12 16 1025.3 1025.3 0.6
19/12:30pm 19.7 17.3 14.5 72 3.0 E 20 26 11 14 1025.7 1025.7 0.6
19/12:00pm 20.6 18.9 14.7 69 3.4 ENE 17 28 9 15 1025.9 1025.9 0.4

Other formats

Comma delimited format used in spreadsheet applications
http://www.bom.gov.au/fwo/IDN60801/IDN60801.94767.axf

JavaScript Object Notation format (JSON) in row-major order
http://www.bom.gov.au/fwo/IDN60801/IDN60801.94767.json

Data quality

Most of these data are generated automatically and are frequently updated. Quality checks on data are not normally performed. It is possible for incorrect values to appear. Refer to information at About Latest Weather Observations and please check the disclaimer before using these data.